sensor_id;sensor_type;location;lat;lon;timestamp;temperature;humidity
20171;DHT22;10245;51.344;6.620;2022-11-04T00:00:40;11.00;83.20
20171;DHT22;10245;51.344;6.620;2022-11-04T00:03:03;10.90;83.80
20171;DHT22;10245;51.344;6.620;2022-11-04T00:05:27;10.90;84.10
20171;DHT22;10245;51.344;6.620;2022-11-04T00:07:50;10.90;83.60
20171;DHT22;10245;51.344;6.620;2022-11-04T00:10:32;10.90;83.90
20171;DHT22;10245;51.344;6.620;2022-11-04T00:13:13;10.80;84.60
20171;DHT22;10245;51.344;6.620;2022-11-04T00:15:37;10.90;84.00
20171;DHT22;10245;51.344;6.620;2022-11-04T00:18:17;10.90;83.80
20171;DHT22;10245;51.344;6.620;2022-11-04T00:20:41;10.90;83.90
20171;DHT22;10245;51.344;6.620;2022-11-04T00:23:21;10.90;83.90
20171;DHT22;10245;51.344;6.620;2022-11-04T00:26:03;10.80;84.30
20171;DHT22;10245;51.344;6.620;2022-11-04T00:28:44;10.80;84.60
20171;DHT22;10245;51.344;6.620;2022-11-04T00:31:08;10.90;84.30
20171;DHT22;10245;51.344;6.620;2022-11-04T00:33:51;10.90;84.50
20171;DHT22;10245;51.344;6.620;2022-11-04T00:36:15;10.90;84.50
20171;DHT22;10245;51.344;6.620;2022-11-04T00:38:38;10.90;84.90
20171;DHT22;10245;51.344;6.620;2022-11-04T00:41:03;10.90;85.00
20171;DHT22;10245;51.344;6.620;2022-11-04T00:43:46;10.90;85.20
20171;DHT22;10245;51.344;6.620;2022-11-04T00:46:10;10.90;85.60
20171;DHT22;10245;51.344;6.620;2022-11-04T00:48:33;10.90;85.20
20171;DHT22;10245;51.344;6.620;2022-11-04T00:50:56;10.90;85.30
20171;DHT22;10245;51.344;6.620;2022-11-04T00:53:19;10.90;85.60
20171;DHT22;10245;51.344;6.620;2022-11-04T00:55:43;10.80;85.80
20171;DHT22;10245;51.344;6.620;2022-11-04T00:58:07;10.90;85.50
20171;DHT22;10245;51.344;6.620;2022-11-04T01:00:31;10.90;85.90
20171;DHT22;10245;51.344;6.620;2022-11-04T01:02:55;10.90;85.60
20171;DHT22;10245;51.344;6.620;2022-11-04T01:05:20;10.90;85.60
20171;DHT22;10245;51.344;6.620;2022-11-04T01:07:44;10.80;86.00
20171;DHT22;10245;51.344;6.620;2022-11-04T01:10:08;10.90;85.80
20171;DHT22;10245;51.344;6.620;2022-11-04T01:12:32;10.80;86.50
20171;DHT22;10245;51.344;6.620;2022-11-04T01:14:56;10.80;86.50
20171;DHT22;10245;51.344;6.620;2022-11-04T01:17:20;10.80;86.40
20171;DHT22;10245;51.344;6.620;2022-11-04T01:19:43;10.70;86.90
20171;DHT22;10245;51.344;6.620;2022-11-04T01:22:06;10.70;86.70
20171;DHT22;10245;51.344;6.620;2022-11-04T01:24:30;10.70;86.70
20171;DHT22;10245;51.344;6.620;2022-11-04T01:26:53;10.60;86.70
20171;DHT22;10245;51.344;6.620;2022-11-04T01:29:16;10.60;87.20
20171;DHT22;10245;51.344;6.620;2022-11-04T01:31:41;10.60;87.00
20171;DHT22;10245;51.344;6.620;2022-11-04T01:34:04;10.70;86.70
20171;DHT22;10245;51.344;6.620;2022-11-04T01:36:27;10.60;87.00
20171;DHT22;10245;51.344;6.620;2022-11-04T01:38:51;10.60;87.10
20171;DHT22;10245;51.344;6.620;2022-11-04T01:41:18;10.70;86.90
20171;DHT22;10245;51.344;6.620;2022-11-04T01:43:47;10.70;86.70
20171;DHT22;10245;51.344;6.620;2022-11-04T01:46:20;10.70;86.80
20171;DHT22;10245;51.344;6.620;2022-11-04T01:48:49;10.60;86.90
20171;DHT22;10245;51.344;6.620;2022-11-04T01:51:14;10.60;87.00
20171;DHT22;10245;51.344;6.620;2022-11-04T01:53:39;10.50;87.20
20171;DHT22;10245;51.344;6.620;2022-11-04T01:56:06;10.60;86.70
20171;DHT22;10245;51.344;6.620;2022-11-04T01:58:34;10.50;87.10
20171;DHT22;10245;51.344;6.620;2022-11-04T02:00:57;10.50;87.30
20171;DHT22;10245;51.344;6.620;2022-11-04T02:03:23;10.40;87.30
20171;DHT22;10245;51.344;6.620;2022-11-04T02:05:50;10.30;87.60
20171;DHT22;10245;51.344;6.620;2022-11-04T02:08:14;10.20;87.70
20171;DHT22;10245;51.344;6.620;2022-11-04T02:10:40;10.20;87.70
20171;DHT22;10245;51.344;6.620;2022-11-04T02:13:07;10.10;87.70
20171;DHT22;10245;51.344;6.620;2022-11-04T02:15:36;10.10;88.20
20171;DHT22;10245;51.344;6.620;2022-11-04T02:18:16;10.00;88.20
20171;DHT22;10245;51.344;6.620;2022-11-04T02:21:04;10.10;87.90
20171;DHT22;10245;51.344;6.620;2022-11-04T02:24:03;10.20;87.60
20171;DHT22;10245;51.344;6.620;2022-11-04T02:27:04;10.10;87.60
20171;DHT22;10245;51.344;6.620;2022-11-04T02:29:47;10.10;87.70
20171;DHT22;10245;51.344;6.620;2022-11-04T02:32:23;10.10;87.70
20171;DHT22;10245;51.344;6.620;2022-11-04T02:34:54;10.10;87.70
20171;DHT22;10245;51.344;6.620;2022-11-04T02:37:32;10.00;87.70
20171;DHT22;10245;51.344;6.620;2022-11-04T02:40:05;10.00;87.60
20171;DHT22;10245;51.344;6.620;2022-11-04T02:42:38;10.00;87.70
20171;DHT22;10245;51.344;6.620;2022-11-04T02:45:13;9.90;87.70
20171;DHT22;10245;51.344;6.620;2022-11-04T02:47:43;9.80;87.90
20171;DHT22;10245;51.344;6.620;2022-11-04T02:50:10;9.80;88.00
20171;DHT22;10245;51.344;6.620;2022-11-04T02:52:41;9.80;88.20
20171;DHT22;10245;51.344;6.620;2022-11-04T02:55:15;9.70;88.20
20171;DHT22;10245;51.344;6.620;2022-11-04T02:57:41;9.70;88.30
20171;DHT22;10245;51.344;6.620;2022-11-04T03:00:11;9.70;88.30
20171;DHT22;10245;51.344;6.620;2022-11-04T03:02:38;9.60;88.30
20171;DHT22;10245;51.344;6.620;2022-11-04T03:05:04;9.50;88.60
20171;DHT22;10245;51.344;6.620;2022-11-04T03:07:33;9.60;88.40
20171;DHT22;10245;51.344;6.620;2022-11-04T03:10:01;9.50;88.60
20171;DHT22;10245;51.344;6.620;2022-11-04T03:12:30;9.50;88.50
20171;DHT22;10245;51.344;6.620;2022-11-04T03:14:58;9.40;88.60
20171;DHT22;10245;51.344;6.620;2022-11-04T03:17:30;9.40;88.50
20171;DHT22;10245;51.344;6.620;2022-11-04T03:19:58;9.20;89.00
20171;DHT22;10245;51.344;6.620;2022-11-04T03:22:23;9.20;89.00
20171;DHT22;10245;51.344;6.620;2022-11-04T03:24:48;9.20;88.90
20171;DHT22;10245;51.344;6.620;2022-11-04T03:27:18;9.20;88.80
20171;DHT22;10245;51.344;6.620;2022-11-04T03:29:51;9.20;88.90
20171;DHT22;10245;51.344;6.620;2022-11-04T03:32:23;9.20;89.00
20171;DHT22;10245;51.344;6.620;2022-11-04T03:34:53;9.20;89.00
20171;DHT22;10245;51.344;6.620;2022-11-04T03:37:17;9.20;89.20
20171;DHT22;10245;51.344;6.620;2022-11-04T03:39:40;9.10;89.00
20171;DHT22;10245;51.344;6.620;2022-11-04T03:42:07;9.10;89.20
20171;DHT22;10245;51.344;6.620;2022-11-04T03:44:42;9.00;89.00
20171;DHT22;10245;51.344;6.620;2022-11-04T03:47:05;8.90;89.10
20171;DHT22;10245;51.344;6.620;2022-11-04T03:49:30;8.90;89.50
20171;DHT22;10245;51.344;6.620;2022-11-04T03:51:53;8.80;89.60
20171;DHT22;10245;51.344;6.620;2022-11-04T03:54:17;8.80;89.60
20171;DHT22;10245;51.344;6.620;2022-11-04T04:00:01;8.70;89.70
20171;DHT22;10245;51.344;6.620;2022-11-04T04:02:36;8.70;90.00
20171;DHT22;10245;51.344;6.620;2022-11-04T04:05:10;8.70;90.00
20171;DHT22;10245;51.344;6.620;2022-11-04T04:07:42;8.70;89.60
20171;DHT22;10245;51.344;6.620;2022-11-04T04:10:12;8.80;89.90
20171;DHT22;10245;51.344;6.620;2022-11-04T04:12:51;8.70;89.70
20171;DHT22;10245;51.344;6.620;2022-11-04T04:15:22;8.60;89.90
20171;DHT22;10245;51.344;6.620;2022-11-04T04:17:51;8.70;89.70
20171;DHT22;10245;51.344;6.620;2022-11-04T04:20:20;8.60;89.60
20171;DHT22;10245;51.344;6.620;2022-11-04T04:22:47;8.50;90.10
20171;DHT22;10245;51.344;6.620;2022-11-04T04:25:13;8.60;90.00
20171;DHT22;10245;51.344;6.620;2022-11-04T04:27:56;8.60;90.00
20171;DHT22;10245;51.344;6.620;2022-11-04T04:30:20;8.50;89.90
20171;DHT22;10245;51.344;6.620;2022-11-04T04:32:45;8.50;90.00
20171;DHT22;10245;51.344;6.620;2022-11-04T04:35:10;8.40;89.80
20171;DHT22;10245;51.344;6.620;2022-11-04T04:37:56;8.40;90.10
20171;DHT22;10245;51.344;6.620;2022-11-04T04:40:44;8.40;90.00
20171;DHT22;10245;51.344;6.620;2022-11-04T04:43:27;8.40;90.10
20171;DHT22;10245;51.344;6.620;2022-11-04T04:46:08;8.40;90.30
20171;DHT22;10245;51.344;6.620;2022-11-04T04:48:31;8.30;89.90
20171;DHT22;10245;51.344;6.620;2022-11-04T04:50:56;8.30;90.20
20171;DHT22;10245;51.344;6.620;2022-11-04T04:53:24;8.30;90.20
20171;DHT22;10245;51.344;6.620;2022-11-04T04:55:47;8.20;90.70
20171;DHT22;10245;51.344;6.620;2022-11-04T04:58:10;8.20;90.50
20171;DHT22;10245;51.344;6.620;2022-11-04T05:00:33;8.20;90.40
20171;DHT22;10245;51.344;6.620;2022-11-04T05:02:57;8.20;90.80
20171;DHT22;10245;51.344;6.620;2022-11-04T05:05:20;8.20;90.30
20171;DHT22;10245;51.344;6.620;2022-11-04T05:07:44;8.20;90.60
20171;DHT22;10245;51.344;6.620;2022-11-04T05:10:10;8.10;90.20
20171;DHT22;10245;51.344;6.620;2022-11-04T05:12:35;8.10;90.60
20171;DHT22;10245;51.344;6.620;2022-11-04T05:15:16;8.10;90.20
20171;DHT22;10245;51.344;6.620;2022-11-04T05:17:39;8.10;90.60
20171;DHT22;10245;51.344;6.620;2022-11-04T05:20:03;8.00;90.80
20171;DHT22;10245;51.344;6.620;2022-11-04T05:22:27;8.00;90.90
20171;DHT22;10245;51.344;6.620;2022-11-04T05:24:50;8.10;90.90
20171;DHT22;10245;51.344;6.620;2022-11-04T05:27:15;8.00;91.00
20171;DHT22;10245;51.344;6.620;2022-11-04T05:29:38;8.20;90.90
20171;DHT22;10245;51.344;6.620;2022-11-04T05:32:01;8.10;90.50
20171;DHT22;10245;51.344;6.620;2022-11-04T05:34:25;8.10;90.50
20171;DHT22;10245;51.344;6.620;2022-11-04T05:36:48;8.00;90.30
20171;DHT22;10245;51.344;6.620;2022-11-04T05:39:12;8.00;90.40
20171;DHT22;10245;51.344;6.620;2022-11-04T05:41:36;8.10;90.30
20171;DHT22;10245;51.344;6.620;2022-11-04T05:44:02;8.00;90.40
20171;DHT22;10245;51.344;6.620;2022-11-04T05:46:26;8.10;90.40
20171;DHT22;10245;51.344;6.620;2022-11-04T05:48:50;8.20;90.70
20171;DHT22;10245;51.344;6.620;2022-11-04T05:51:14;8.10;90.40
20171;DHT22;10245;51.344;6.620;2022-11-04T05:53:38;8.10;90.50
20171;DHT22;10245;51.344;6.620;2022-11-04T05:56:01;8.10;90.60
20171;DHT22;10245;51.344;6.620;2022-11-04T05:58:24;8.10;90.60
20171;DHT22;10245;51.344;6.620;2022-11-04T06:00:49;8.00;90.60
20171;DHT22;10245;51.344;6.620;2022-11-04T06:03:12;8.00;90.30
20171;DHT22;10245;51.344;6.620;2022-11-04T06:05:37;8.00;90.40
20171;DHT22;10245;51.344;6.620;2022-11-04T06:08:00;8.00;90.30
20171;DHT22;10245;51.344;6.620;2022-11-04T06:10:24;8.00;90.90
20171;DHT22;10245;51.344;6.620;2022-11-04T06:12:47;8.00;90.70
20171;DHT22;10245;51.344;6.620;2022-11-04T06:15:11;8.00;90.80
20171;DHT22;10245;51.344;6.620;2022-11-04T06:17:35;8.00;90.90
20171;DHT22;10245;51.344;6.620;2022-11-04T06:19:59;8.00;90.90
20171;DHT22;10245;51.344;6.620;2022-11-04T06:22:22;7.90;91.00
20171;DHT22;10245;51.344;6.620;2022-11-04T06:24:45;7.90;91.00
20171;DHT22;10245;51.344;6.620;2022-11-04T06:27:09;7.80;90.90
20171;DHT22;10245;51.344;6.620;2022-11-04T06:29:33;7.80;90.90
20171;DHT22;10245;51.344;6.620;2022-11-04T06:31:57;7.80;91.00
20171;DHT22;10245;51.344;6.620;2022-11-04T06:34:21;7.80;90.90
20171;DHT22;10245;51.344;6.620;2022-11-04T06:36:45;7.90;91.10
20171;DHT22;10245;51.344;6.620;2022-11-04T06:39:08;7.90;90.90
20171;DHT22;10245;51.344;6.620;2022-11-04T06:41:31;7.90;90.90
20171;DHT22;10245;51.344;6.620;2022-11-04T06:43:55;7.80;91.00
20171;DHT22;10245;51.344;6.620;2022-11-04T06:46:26;7.80;91.30
20171;DHT22;10245;51.344;6.620;2022-11-04T06:48:51;7.90;91.10
20171;DHT22;10245;51.344;6.620;2022-11-04T06:51:15;8.00;91.20
20171;DHT22;10245;51.344;6.620;2022-11-04T06:53:39;8.10;91.40
20171;DHT22;10245;51.344;6.620;2022-11-04T06:56:02;8.10;91.40
20171;DHT22;10245;51.344;6.620;2022-11-04T06:58:26;8.10;91.30
20171;DHT22;10245;51.344;6.620;2022-11-04T07:00:51;8.20;91.20
20171;DHT22;10245;51.344;6.620;2022-11-04T07:03:15;8.20;91.10
20171;DHT22;10245;51.344;6.620;2022-11-04T07:05:38;8.20;90.80
20171;DHT22;10245;51.344;6.620;2022-11-04T07:08:03;8.20;90.90
20171;DHT22;10245;51.344;6.620;2022-11-04T07:10:27;8.20;90.90
20171;DHT22;10245;51.344;6.620;2022-11-04T07:12:50;8.30;90.80
20171;DHT22;10245;51.344;6.620;2022-11-04T07:15:15;8.40;90.40
20171;DHT22;10245;51.344;6.620;2022-11-04T07:17:44;8.50;90.50
20171;DHT22;10245;51.344;6.620;2022-11-04T07:20:08;8.50;90.30
20171;DHT22;10245;51.344;6.620;2022-11-04T07:22:33;8.50;90.60
20171;DHT22;10245;51.344;6.620;2022-11-04T07:24:58;8.60;90.60
20171;DHT22;10245;51.344;6.620;2022-11-04T07:27:22;8.60;90.10
20171;DHT22;10245;51.344;6.620;2022-11-04T07:29:45;8.60;90.30
20171;DHT22;10245;51.344;6.620;2022-11-04T07:32:08;8.70;90.00
20171;DHT22;10245;51.344;6.620;2022-11-04T07:34:32;8.70;90.10
20171;DHT22;10245;51.344;6.620;2022-11-04T07:36:55;8.80;89.90
20171;DHT22;10245;51.344;6.620;2022-11-04T07:39:18;8.80;89.80
20171;DHT22;10245;51.344;6.620;2022-11-04T07:41:43;8.90;89.80
20171;DHT22;10245;51.344;6.620;2022-11-04T07:44:08;8.90;89.80
20171;DHT22;10245;51.344;6.620;2022-11-04T07:46:32;9.00;89.90
20171;DHT22;10245;51.344;6.620;2022-11-04T07:48:56;8.90;90.10
20171;DHT22;10245;51.344;6.620;2022-11-04T07:51:20;9.00;89.50
20171;DHT22;10245;51.344;6.620;2022-11-04T07:53:44;9.00;89.50
20171;DHT22;10245;51.344;6.620;2022-11-04T07:56:10;9.00;89.40
20171;DHT22;10245;51.344;6.620;2022-11-04T07:58:35;9.00;89.10
20171;DHT22;10245;51.344;6.620;2022-11-04T08:00:59;9.00;89.30
20171;DHT22;10245;51.344;6.620;2022-11-04T08:03:23;9.10;89.20
20171;DHT22;10245;51.344;6.620;2022-11-04T08:05:46;9.10;88.90
20171;DHT22;10245;51.344;6.620;2022-11-04T08:08:09;9.10;88.80
20171;DHT22;10245;51.344;6.620;2022-11-04T08:10:33;9.20;89.00
20171;DHT22;10245;51.344;6.620;2022-11-04T08:12:56;9.20;89.10
20171;DHT22;10245;51.344;6.620;2022-11-04T08:15:21;9.20;89.30
20171;DHT22;10245;51.344;6.620;2022-11-04T08:17:44;9.20;89.70
20171;DHT22;10245;51.344;6.620;2022-11-04T08:20:08;9.30;89.90
20171;DHT22;10245;51.344;6.620;2022-11-04T08:22:33;9.30;90.30
20171;DHT22;10245;51.344;6.620;2022-11-04T08:24:57;9.40;90.20
20171;DHT22;10245;51.344;6.620;2022-11-04T08:27:20;9.40;90.30
20171;DHT22;10245;51.344;6.620;2022-11-04T08:29:44;9.50;90.80
20171;DHT22;10245;51.344;6.620;2022-11-04T08:32:08;9.50;91.10
20171;DHT22;10245;51.344;6.620;2022-11-04T08:34:32;9.60;91.00
20171;DHT22;10245;51.344;6.620;2022-11-04T08:36:55;9.70;90.90
20171;DHT22;10245;51.344;6.620;2022-11-04T08:39:19;9.80;91.00
20171;DHT22;10245;51.344;6.620;2022-11-04T08:41:42;9.70;90.50
20171;DHT22;10245;51.344;6.620;2022-11-04T08:44:07;9.70;89.80
20171;DHT22;10245;51.344;6.620;2022-11-04T08:46:32;9.70;89.80
20171;DHT22;10245;51.344;6.620;2022-11-04T08:48:59;9.80;90.60
20171;DHT22;10245;51.344;6.620;2022-11-04T08:51:31;9.90;89.80
20171;DHT22;10245;51.344;6.620;2022-11-04T08:53:56;9.90;89.50
20171;DHT22;10245;51.344;6.620;2022-11-04T08:56:22;10.00;90.00
20171;DHT22;10245;51.344;6.620;2022-11-04T08:58:46;9.90;89.20
20171;DHT22;10245;51.344;6.620;2022-11-04T09:01:10;9.90;88.70
20171;DHT22;10245;51.344;6.620;2022-11-04T09:03:33;9.80;88.90
20171;DHT22;10245;51.344;6.620;2022-11-04T09:06:00;9.80;89.60
20171;DHT22;10245;51.344;6.620;2022-11-04T09:08:24;9.90;89.80
20171;DHT22;10245;51.344;6.620;2022-11-04T09:10:47;9.90;89.50
20171;DHT22;10245;51.344;6.620;2022-11-04T09:13:11;9.90;89.60
20171;DHT22;10245;51.344;6.620;2022-11-04T09:15:34;9.90;89.20
20171;DHT22;10245;51.344;6.620;2022-11-04T09:17:57;9.90;89.40
20171;DHT22;10245;51.344;6.620;2022-11-04T09:20:21;10.00;89.20
20171;DHT22;10245;51.344;6.620;2022-11-04T09:22:45;10.00;88.70
20171;DHT22;10245;51.344;6.620;2022-11-04T09:25:11;10.10;89.30
20171;DHT22;10245;51.344;6.620;2022-11-04T09:27:34;10.10;89.10
20171;DHT22;10245;51.344;6.620;2022-11-04T09:29:57;10.20;89.30
20171;DHT22;10245;51.344;6.620;2022-11-04T09:32:21;10.30;89.30
20171;DHT22;10245;51.344;6.620;2022-11-04T09:34:44;10.50;88.70
20171;DHT22;10245;51.344;6.620;2022-11-04T09:37:08;10.60;88.60
20171;DHT22;10245;51.344;6.620;2022-11-04T09:39:32;10.70;88.50
20171;DHT22;10245;51.344;6.620;2022-11-04T09:42:16;10.70;87.80
20171;DHT22;10245;51.344;6.620;2022-11-04T09:44:49;10.70;87.50
20171;DHT22;10245;51.344;6.620;2022-11-04T09:47:38;10.60;86.60
20171;DHT22;10245;51.344;6.620;2022-11-04T09:50:06;10.80;87.50
20171;DHT22;10245;51.344;6.620;2022-11-04T09:52:36;10.90;86.50
20171;DHT22;10245;51.344;6.620;2022-11-04T09:55:05;11.00;86.40
20171;DHT22;10245;51.344;6.620;2022-11-04T09:57:35;11.10;86.20
20171;DHT22;10245;51.344;6.620;2022-11-04T09:59:58;11.00;86.40
20171;DHT22;10245;51.344;6.620;2022-11-04T10:05:36;10.90;86.10
20171;DHT22;10245;51.344;6.620;2022-11-04T10:08:41;10.80;85.90
20171;DHT22;10245;51.344;6.620;2022-11-04T10:11:32;11.00;85.70
20171;DHT22;10245;51.344;6.620;2022-11-04T10:14:15;11.30;85.70
20171;DHT22;10245;51.344;6.620;2022-11-04T10:16:55;11.50;85.10
20171;DHT22;10245;51.344;6.620;2022-11-04T10:19:35;11.50;84.70
20171;DHT22;10245;51.344;6.620;2022-11-04T10:22:10;11.50;84.50
20171;DHT22;10245;51.344;6.620;2022-11-04T10:24:41;11.60;84.30
20171;DHT22;10245;51.344;6.620;2022-11-04T10:27:15;11.50;83.70
20171;DHT22;10245;51.344;6.620;2022-11-04T10:29:42;11.70;84.00
20171;DHT22;10245;51.344;6.620;2022-11-04T10:32:14;11.60;83.70
20171;DHT22;10245;51.344;6.620;2022-11-04T10:34:47;11.50;83.80
20171;DHT22;10245;51.344;6.620;2022-11-04T10:37:12;11.60;83.50
20171;DHT22;10245;51.344;6.620;2022-11-04T10:39:40;11.70;84.10
20171;DHT22;10245;51.344;6.620;2022-11-04T10:42:05;11.70;84.20
20171;DHT22;10245;51.344;6.620;2022-11-04T10:44:32;11.80;84.80
20171;DHT22;10245;51.344;6.620;2022-11-04T10:47:03;11.70;83.60
20171;DHT22;10245;51.344;6.620;2022-11-04T10:49:53;11.70;84.50
20171;DHT22;10245;51.344;6.620;2022-11-04T10:52:42;11.70;83.60
20171;DHT22;10245;51.344;6.620;2022-11-04T10:55:14;11.90;84.50
20171;DHT22;10245;51.344;6.620;2022-11-04T10:57:41;11.80;82.10
20171;DHT22;10245;51.344;6.620;2022-11-04T11:00:07;11.70;81.80
20171;DHT22;10245;51.344;6.620;2022-11-04T11:02:45;11.90;82.30
20171;DHT22;10245;51.344;6.620;2022-11-04T11:05:18;11.90;83.50
20171;DHT22;10245;51.344;6.620;2022-11-04T11:07:47;12.00;82.70
20171;DHT22;10245;51.344;6.620;2022-11-04T11:10:16;12.00;80.80
20171;DHT22;10245;51.344;6.620;2022-11-04T11:12:42;12.00;81.70
20171;DHT22;10245;51.344;6.620;2022-11-04T11:15:25;12.00;80.40
20171;DHT22;10245;51.344;6.620;2022-11-04T11:17:59;12.00;80.90
20171;DHT22;10245;51.344;6.620;2022-11-04T11:20:24;11.90;80.60
20171;DHT22;10245;51.344;6.620;2022-11-04T11:22:49;12.00;81.00
20171;DHT22;10245;51.344;6.620;2022-11-04T11:25:23;12.10;81.70
20171;DHT22;10245;51.344;6.620;2022-11-04T11:27:49;12.10;81.10
20171;DHT22;10245;51.344;6.620;2022-11-04T11:30:30;12.20;80.50
20171;DHT22;10245;51.344;6.620;2022-11-04T11:32:57;12.00;80.20
20171;DHT22;10245;51.344;6.620;2022-11-04T11:35:31;11.80;79.60
20171;DHT22;10245;51.344;6.620;2022-11-04T11:38:02;12.00;80.70
20171;DHT22;10245;51.344;6.620;2022-11-04T11:40:29;12.10;81.90
20171;DHT22;10245;51.344;6.620;2022-11-04T11:42:55;12.10;79.90
20171;DHT22;10245;51.344;6.620;2022-11-04T11:45:19;12.00;79.30
20171;DHT22;10245;51.344;6.620;2022-11-04T11:47:47;12.10;81.20
20171;DHT22;10245;51.344;6.620;2022-11-04T11:50:17;12.30;80.40
20171;DHT22;10245;51.344;6.620;2022-11-04T11:52:45;12.30;78.60
20171;DHT22;10245;51.344;6.620;2022-11-04T11:55:15;12.30;80.70
20171;DHT22;10245;51.344;6.620;2022-11-04T11:57:51;12.30;79.30
20171;DHT22;10245;51.344;6.620;2022-11-04T12:00:45;12.20;79.10
20171;DHT22;10245;51.344;6.620;2022-11-04T12:03:27;12.00;78.40
20171;DHT22;10245;51.344;6.620;2022-11-04T12:06:29;12.00;78.70
20171;DHT22;10245;51.344;6.620;2022-11-04T12:09:26;12.00;80.30
20171;DHT22;10245;51.344;6.620;2022-11-04T12:12:16;12.10;80.00
20171;DHT22;10245;51.344;6.620;2022-11-04T12:15:02;12.20;79.90
20171;DHT22;10245;51.344;6.620;2022-11-04T12:17:41;12.30;79.80
20171;DHT22;10245;51.344;6.620;2022-11-04T12:20:27;12.30;78.60
20171;DHT22;10245;51.344;6.620;2022-11-04T12:23:00;12.30;79.70
20171;DHT22;10245;51.344;6.620;2022-11-04T12:25:31;12.10;79.40
20171;DHT22;10245;51.344;6.620;2022-11-04T12:28:02;12.20;80.30
20171;DHT22;10245;51.344;6.620;2022-11-04T12:30:33;12.10;77.30
20171;DHT22;10245;51.344;6.620;2022-11-04T12:33:10;12.20;77.60
20171;DHT22;10245;51.344;6.620;2022-11-04T12:35:49;12.10;78.60
20171;DHT22;10245;51.344;6.620;2022-11-04T12:38:30;12.20;79.40
20171;DHT22;10245;51.344;6.620;2022-11-04T12:41:07;12.20;78.50
20171;DHT22;10245;51.344;6.620;2022-11-04T12:44:00;12.30;79.40
20171;DHT22;10245;51.344;6.620;2022-11-04T12:46:31;12.30;79.70
20171;DHT22;10245;51.344;6.620;2022-11-04T12:49:30;12.50;79.30
20171;DHT22;10245;51.344;6.620;2022-11-04T12:52:42;12.50;77.70
20171;DHT22;10245;51.344;6.620;2022-11-04T12:55:25;12.50;79.30
20171;DHT22;10245;51.344;6.620;2022-11-04T12:58:15;12.30;77.10
20171;DHT22;10245;51.344;6.620;2022-11-04T13:00:48;12.30;79.40
20171;DHT22;10245;51.344;6.620;2022-11-04T13:03:26;12.30;78.60
20171;DHT22;10245;51.344;6.620;2022-11-04T13:05:56;12.20;79.90
20171;DHT22;10245;51.344;6.620;2022-11-04T13:08:30;12.00;78.40
20171;DHT22;10245;51.344;6.620;2022-11-04T13:10:59;12.10;80.10
20171;DHT22;10245;51.344;6.620;2022-11-04T13:13:27;12.10;79.00
20171;DHT22;10245;51.344;6.620;2022-11-04T13:15:57;12.10;78.90
20171;DHT22;10245;51.344;6.620;2022-11-04T13:18:24;12.10;79.30
20171;DHT22;10245;51.344;6.620;2022-11-04T13:20:53;12.10;77.80
20171;DHT22;10245;51.344;6.620;2022-11-04T13:23:27;12.20;79.00
20171;DHT22;10245;51.344;6.620;2022-11-04T13:25:54;12.20;79.10
20171;DHT22;10245;51.344;6.620;2022-11-04T13:28:20;12.30;78.50
20171;DHT22;10245;51.344;6.620;2022-11-04T13:30:51;12.40;79.90
20171;DHT22;10245;51.344;6.620;2022-11-04T13:33:26;12.50;79.00
20171;DHT22;10245;51.344;6.620;2022-11-04T13:35:57;12.50;78.50
20171;DHT22;10245;51.344;6.620;2022-11-04T13:38:29;12.50;79.90
20171;DHT22;10245;51.344;6.620;2022-11-04T13:41:02;12.50;78.60
20171;DHT22;10245;51.344;6.620;2022-11-04T13:43:44;12.50;79.80
20171;DHT22;10245;51.344;6.620;2022-11-04T13:46:20;12.50;79.00
20171;DHT22;10245;51.344;6.620;2022-11-04T13:48:56;12.50;79.80
20171;DHT22;10245;51.344;6.620;2022-11-04T13:51:22;12.50;79.40
20171;DHT22;10245;51.344;6.620;2022-11-04T13:53:49;12.40;79.20
20171;DHT22;10245;51.344;6.620;2022-11-04T13:56:27;12.40;79.50
20171;DHT22;10245;51.344;6.620;2022-11-04T13:58:58;12.30;79.50
20171;DHT22;10245;51.344;6.620;2022-11-04T14:01:28;12.20;79.60
20171;DHT22;10245;51.344;6.620;2022-11-04T14:04:00;12.20;80.40
20171;DHT22;10245;51.344;6.620;2022-11-04T14:06:50;12.20;80.20
20171;DHT22;10245;51.344;6.620;2022-11-04T14:09:32;12.20;81.30
20171;DHT22;10245;51.344;6.620;2022-11-04T14:12:28;12.20;80.50
20171;DHT22;10245;51.344;6.620;2022-11-04T14:15:06;12.10;80.40
20171;DHT22;10245;51.344;6.620;2022-11-04T14:17:56;12.10;81.50
20171;DHT22;10245;51.344;6.620;2022-11-04T14:20:22;12.10;81.40
20171;DHT22;10245;51.344;6.620;2022-11-04T14:22:49;12.10;82.00
20171;DHT22;10245;51.344;6.620;2022-11-04T14:25:26;12.00;82.90
20171;DHT22;10245;51.344;6.620;2022-11-04T14:27:52;12.00;82.30
20171;DHT22;10245;51.344;6.620;2022-11-04T14:30:42;12.00;81.20
20171;DHT22;10245;51.344;6.620;2022-11-04T14:33:20;12.00;82.70
20171;DHT22;10245;51.344;6.620;2022-11-04T14:36:15;12.00;81.90
20171;DHT22;10245;51.344;6.620;2022-11-04T14:38:52;12.00;82.00
20171;DHT22;10245;51.344;6.620;2022-11-04T14:41:28;11.90;82.50
20171;DHT22;10245;51.344;6.620;2022-11-04T14:43:55;11.80;82.50
20171;DHT22;10245;51.344;6.620;2022-11-04T14:46:21;11.80;81.90
20171;DHT22;10245;51.344;6.620;2022-11-04T14:48:49;11.90;81.90
20171;DHT22;10245;51.344;6.620;2022-11-04T14:51:22;12.10;81.90
20171;DHT22;10245;51.344;6.620;2022-11-04T14:53:47;12.20;82.60
20171;DHT22;10245;51.344;6.620;2022-11-04T14:56:14;12.00;81.70
20171;DHT22;10245;51.344;6.620;2022-11-04T14:58:55;11.80;82.20
20171;DHT22;10245;51.344;6.620;2022-11-04T15:01:20;11.70;82.50
20171;DHT22;10245;51.344;6.620;2022-11-04T15:03:45;11.70;83.20
20171;DHT22;10245;51.344;6.620;2022-11-04T15:06:29;11.50;83.70
20171;DHT22;10245;51.344;6.620;2022-11-04T15:09:21;11.50;82.80
20171;DHT22;10245;51.344;6.620;2022-11-04T15:11:45;11.60;83.70
20171;DHT22;10245;51.344;6.620;2022-11-04T15:14:28;11.60;84.40
20171;DHT22;10245;51.344;6.620;2022-11-04T15:16:54;11.50;83.50
20171;DHT22;10245;51.344;6.620;2022-11-04T15:19:27;11.50;84.00
20171;DHT22;10245;51.344;6.620;2022-11-04T15:21:51;11.50;83.70
20171;DHT22;10245;51.344;6.620;2022-11-04T15:24:16;11.50;83.80
20171;DHT22;10245;51.344;6.620;2022-11-04T15:26:39;11.50;84.80
20171;DHT22;10245;51.344;6.620;2022-11-04T15:29:07;11.50;83.90
20171;DHT22;10245;51.344;6.620;2022-11-04T15:31:34;11.40;84.30
20171;DHT22;10245;51.344;6.620;2022-11-04T15:34:00;11.40;84.10
20171;DHT22;10245;51.344;6.620;2022-11-04T15:36:26;11.40;84.70
20171;DHT22;10245;51.344;6.620;2022-11-04T15:38:53;11.40;85.20
20171;DHT22;10245;51.344;6.620;2022-11-04T15:41:21;11.40;84.90
20171;DHT22;10245;51.344;6.620;2022-11-04T15:44:03;11.30;84.50
20171;DHT22;10245;51.344;6.620;2022-11-04T15:46:28;11.20;84.80
20171;DHT22;10245;51.344;6.620;2022-11-04T15:49:04;11.20;84.90
20171;DHT22;10245;51.344;6.620;2022-11-04T15:51:30;11.10;85.30
20171;DHT22;10245;51.344;6.620;2022-11-04T15:53:58;11.00;85.40
20171;DHT22;10245;51.344;6.620;2022-11-04T15:56:25;11.10;86.00
20171;DHT22;10245;51.344;6.620;2022-11-04T15:58:50;11.20;85.70